Time;durP1;ratioP1;P1;durP2;ratioP2;P2;SDS_P1;SDS_P2;PMS_P1;PMS_P2;Temp;Humidity;BMP_temperature;BMP_pressure;BME280_temperature;BME280_humidity;BME280_pressure;Samples;Min_cycle;Max_cycle;Signal;HPM_P1;HPM_P2
2021/06/24 00:00:49;;;;;;;2.90;2.15;;;;;;;;;;5020675;28;20041;-63
2021/06/24 00:03:14;;;;;;;3.40;2.25;;;;;;;;;;5023357;28;20037;-63
2021/06/24 00:05:41;;;;;;;4.68;2.45;;;;;;;;;;5021416;28;20030;-63
2021/06/24 00:08:07;;;;;;;5.40;2.40;;;;;;;;;;5021871;28;20073;-63
2021/06/24 00:10:34;;;;;;;3.10;2.15;;;;;;;;;;5022362;28;20161;-63
2021/06/24 00:12:59;;;;;;;3.80;2.33;;;;;;;;;;5022663;28;20049;-63
2021/06/24 00:15:24;;;;;;;4.30;2.38;;;;;;;;;;5017292;28;20041;-64
2021/06/24 00:17:50;;;;;;;3.45;2.40;;;;;;;;;;5022601;28;20033;-63
2021/06/24 00:20:15;;;;;;;3.83;2.38;;;;;;;;;;5023484;28;20038;-63
2021/06/24 00:22:41;;;;;;;4.10;2.22;;;;;;;;;;5021805;28;20415;-63
2021/06/24 00:25:07;;;;;;;3.85;2.33;;;;;;;;;;5022657;28;20731;-64
2021/06/24 00:27:32;;;;;;;2.83;2.22;;;;;;;;;;5022255;28;20468;-63
2021/06/24 00:29:58;;;;;;;4.32;2.33;;;;;;;;;;5021780;28;20042;-63
2021/06/24 00:32:23;;;;;;;5.03;2.50;;;;;;;;;;5021520;28;20036;-63
2021/06/24 00:34:49;;;;;;;3.63;2.22;;;;;;;;;;5019435;28;20410;-63
2021/06/24 00:37:14;;;;;;;4.10;2.13;;;;;;;;;;5022061;28;20057;-63
2021/06/24 00:39:40;;;;;;;5.53;2.20;;;;;;;;;;5017398;28;20038;-63
2021/06/24 00:42:06;;;;;;;4.97;2.30;;;;;;;;;;5018831;28;20052;-63
2021/06/24 00:44:31;;;;;;;7.75;2.70;;;;;;;;;;5021693;28;20029;-63
2021/06/24 00:46:57;;;;;;;3.67;2.22;;;;;;;;;;5022259;28;20116;-63
2021/06/24 00:49:23;;;;;;;4.15;2.38;;;;;;;;;;5022645;28;20046;-63
2021/06/24 00:51:48;;;;;;;4.53;2.20;;;;;;;;;;5022172;28;20034;-63
2021/06/24 00:54:15;;;;;;;4.88;2.40;;;;;;;;;;5021065;28;20037;-63
2021/06/24 00:56:40;;;;;;;4.55;2.72;;;;;;;;;;5022019;28;20068;-63
2021/06/24 00:59:06;;;;;;;6.13;2.50;;;;;;;;;;5004357;28;20541;-63
2021/06/24 01:01:33;;;;;;;4.07;2.30;;;;;;;;;;5015060;28;20034;-63
2021/06/24 01:03:59;;;;;;;4.28;2.33;;;;;;;;;;5020745;28;20029;-63
2021/06/24 01:06:24;;;;;;;4.32;2.65;;;;;;;;;;5016068;28;20034;-63
2021/06/24 01:08:50;;;;;;;4.05;2.17;;;;;;;;;;5004312;28;20044;-63
2021/06/24 01:11:18;;;;;;;3.70;2.53;;;;;;;;;;5021839;28;20045;-63
2021/06/24 01:13:44;;;;;;;3.92;2.30;;;;;;;;;;5002695;28;20033;-64
2021/06/24 01:16:11;;;;;;;4.80;2.53;;;;;;;;;;5004893;28;20030;-63
2021/06/24 01:18:36;;;;;;;3.58;2.17;;;;;;;;;;5019971;28;20033;-63
2021/06/24 01:21:02;;;;;;;5.88;2.45;;;;;;;;;;5021583;28;20022;-63
2021/06/24 01:23:28;;;;;;;4.20;2.58;;;;;;;;;;5021447;28;20030;-63
2021/06/24 01:25:56;;;;;;;3.95;2.40;;;;;;;;;;5003213;28;20409;-64
2021/06/24 01:28:22;;;;;;;3.58;2.38;;;;;;;;;;5022075;28;20045;-63
2021/06/24 01:30:48;;;;;;;4.72;2.30;;;;;;;;;;5016717;28;20032;-63
2021/06/24 01:33:14;;;;;;;4.45;2.38;;;;;;;;;;5022038;28;20505;-63
2021/06/24 01:35:40;;;;;;;4.22;2.55;;;;;;;;;;5020710;28;20041;-63
2021/06/24 01:38:08;;;;;;;3.95;2.25;;;;;;;;;;5004126;28;20466;-63
2021/06/24 01:40:36;;;;;;;4.43;2.38;;;;;;;;;;5020172;28;20118;-63
2021/06/24 01:43:02;;;;;;;3.63;2.28;;;;;;;;;;5020791;28;20513;-64
2021/06/24 01:45:28;;;;;;;4.72;2.42;;;;;;;;;;5019220;28;20120;-63
2021/06/24 01:47:54;;;;;;;4.70;2.35;;;;;;;;;;5020618;28;20517;-63
2021/06/24 01:50:20;;;;;;;3.58;2.30;;;;;;;;;;5021130;28;21072;-63
2021/06/24 01:52:47;;;;;;;3.45;1.90;;;;;;;;;;5016834;28;20030;-63
2021/06/24 01:55:15;;;;;;;4.82;2.28;;;;;;;;;;5002970;28;20038;-63
2021/06/24 01:58:00;;;;;;;3.80;2.00;;;;;;;;;;5004903;28;20116;-63
2021/06/24 02:00:44;;;;;;;2.97;2.00;;;;;;;;;;5020906;28;20042;-63
2021/06/24 02:03:17;;;;;;;5.15;2.20;;;;;;;;;;4990481;28;20113;-63
2021/06/24 02:05:43;;;;;;;4.82;2.20;;;;;;;;;;5019812;28;20038;-63
2021/06/24 02:08:26;;;;;;;4.43;1.90;;;;;;;;;;5003657;28;20046;-63
2021/06/24 02:11:08;;;;;;;4.90;2.33;;;;;;;;;;5019572;28;20034;-63
2021/06/24 02:13:37;;;;;;;3.80;2.10;;;;;;;;;;5019475;28;20030;-63
2021/06/24 02:16:06;;;;;;;3.67;2.00;;;;;;;;;;5017068;28;20113;-63
2021/06/24 02:18:32;;;;;;;3.60;2.08;;;;;;;;;;5022119;28;20795;-63
2021/06/24 02:21:01;;;;;;;5.13;2.08;;;;;;;;;;5023883;28;20050;-62
2021/06/24 02:23:43;;;;;;;;;;;;;;;;;;5023403;28;20149;-63
2021/06/24 02:26:31;;;;;;;3.40;2.05;;;;;;;;;;5023773;28;19924;-63
2021/06/24 02:29:12;;;;;;;3.53;1.88;;;;;;;;;;5022708;28;20038;-63
2021/06/24 02:31:38;;;;;;;4.80;2.00;;;;;;;;;;5023303;28;20550;-63
2021/06/24 02:34:16;;;;;;;3.53;1.73;;;;;;;;;;5020678;28;20056;-63
2021/06/24 02:37:02;;;;;;;3.53;1.80;;;;;;;;;;5016331;28;20522;-63
2021/06/24 02:39:50;;;;;;;3.85;2.08;;;;;;;;;;4992242;28;20042;-63
2021/06/24 02:42:19;;;;;;;4.20;1.88;;;;;;;;;;5007256;28;20029;-63
2021/06/24 02:44:47;;;;;;;3.70;1.90;;;;;;;;;;5022079;28;20121;-63
2021/06/24 02:47:12;;;;;;;3.78;2.05;;;;;;;;;;5023513;28;20490;-62
2021/06/24 02:49:38;;;;;;;2.40;1.83;;;;;;;;;;5024270;28;20100;-63
2021/06/24 02:52:06;;;;;;;3.78;1.92;;;;;;;;;;5024599;28;20500;-63
2021/06/24 02:54:32;;;;;;;3.00;1.88;;;;;;;;;;5022732;28;20092;-63
2021/06/24 02:56:58;;;;;;;3.47;1.92;;;;;;;;;;5017985;28;20423;-63
2021/06/24 02:59:43;;;;;;;3.65;2.05;;;;;;;;;;5022792;28;20510;-63
2021/06/24 03:02:08;;;;;;;3.10;2.10;;;;;;;;;;5006510;28;20605;-63
2021/06/24 03:04:37;;;;;;;5.13;2.17;;;;;;;;;;5014896;28;20072;-63
2021/06/24 03:07:03;;;;;;;3.03;1.85;;;;;;;;;;5022698;28;20021;-65
2021/06/24 03:09:34;;;;;;;3.63;2.07;;;;;;;;;;4992008;28;20029;-63
2021/06/24 03:12:00;;;;;;;4.00;1.90;;;;;;;;;;5022810;28;20073;-63
2021/06/24 03:14:26;;;;;;;3.15;1.90;;;;;;;;;;5023448;28;20022;-63
2021/06/24 03:16:52;;;;;;;3.03;1.88;;;;;;;;;;5023152;28;20042;-63
2021/06/24 03:19:19;;;;;;;3.55;2.00;;;;;;;;;;5021604;28;20034;-63
2021/06/24 03:22:05;;;;;;;2.78;1.92;;;;;;;;;;5016565;28;20109;-63
2021/06/24 03:24:40;;;;;;;3.25;2.00;;;;;;;;;;5021788;28;20458;-62
2021/06/24 03:27:08;;;;;;;4.65;2.13;;;;;;;;;;5014251;28;20034;-63
2021/06/24 03:29:40;;;;;;;3.28;2.00;;;;;;;;;;5007045;28;20026;-63
2021/06/24 03:32:06;;;;;;;3.88;2.15;;;;;;;;;;5018412;28;20037;-63
2021/06/24 03:34:32;;;;;;;2.70;2.00;;;;;;;;;;5023707;28;20648;-63
2021/06/24 03:36:57;;;;;;;2.83;1.95;;;;;;;;;;5023118;28;20080;-63
2021/06/24 03:39:29;;;;;;;2.88;2.05;;;;;;;;;;5018129;28;20156;-63
2021/06/24 03:41:56;;;;;;;3.38;1.90;;;;;;;;;;5021885;28;20116;-63
2021/06/24 03:44:21;;;;;;;5.45;2.10;;;;;;;;;;5020513;28;20026;-63
2021/06/24 03:46:47;;;;;;;4.47;2.10;;;;;;;;;;5020865;28;20504;-63
2021/06/24 03:49:12;;;;;;;2.95;1.90;;;;;;;;;;5022653;28;20041;-62
2021/06/24 03:51:40;;;;;;;3.17;2.00;;;;;;;;;;5021495;28;20078;-63
2021/06/24 03:54:05;;;;;;;3.55;2.20;;;;;;;;;;5021510;28;20034;-63
2021/06/24 03:56:35;;;;;;;3.35;2.03;;;;;;;;;;5022377;28;20052;-63
2021/06/24 03:59:10;;;;;;;4.18;2.00;;;;;;;;;;5005581;28;20031;-63
2021/06/24 04:01:42;;;;;;;3.28;1.98;;;;;;;;;;5015712;28;20026;-63
2021/06/24 04:04:10;;;;;;;4.00;1.73;;;;;;;;;;5021839;28;20034;-63
2021/06/24 04:06:42;;;;;;;3.53;1.85;;;;;;;;;;5021652;28;20952;-63
2021/06/24 04:09:09;;;;;;;3.90;1.92;;;;;;;;;;5020370;28;20100;-63
2021/06/24 04:11:35;;;;;;;3.22;1.70;;;;;;;;;;5004089;28;20038;-63
2021/06/24 04:14:11;;;;;;;2.53;1.70;;;;;;;;;;5021101;28;20034;-63
2021/06/24 04:16:54;;;;;;;3.00;1.95;;;;;;;;;;5013426;28;20037;-63
2021/06/24 04:19:20;;;;;;;3.47;1.75;;;;;;;;;;5022775;28;20593;-63
2021/06/24 04:21:48;;;;;;;3.05;1.92;;;;;;;;;;4991545;28;20202;-63
2021/06/24 04:24:13;;;;;;;3.10;1.98;;;;;;;;;;5020133;28;20052;-63
2021/06/24 04:26:39;;;;;;;3.97;2.10;;;;;;;;;;5021695;28;20030;-63
2021/06/24 04:29:05;;;;;;;4.05;2.10;;;;;;;;;;5020856;28;20041;-63
2021/06/24 04:31:32;;;;;;;4.15;1.90;;;;;;;;;;5022195;28;20084;-63
2021/06/24 04:34:02;;;;;;;2.85;1.90;;;;;;;;;;5020856;28;20949;-63
2021/06/24 04:36:34;;;;;;;3.35;2.03;;;;;;;;;;5020339;28;20153;-63
2021/06/24 04:39:06;;;;;;;4.40;2.22;;;;;;;;;;5004423;28;20034;-63
2021/06/24 04:41:32;;;;;;;4.13;2.08;;;;;;;;;;5013903;28;20041;-63
2021/06/24 04:44:00;;;;;;;4.20;1.90;;;;;;;;;;5021297;28;20030;-63
2021/06/24 04:46:28;;;;;;;3.33;1.80;;;;;;;;;;5020277;28;20439;-63
2021/06/24 04:48:54;;;;;;;3.00;1.90;;;;;;;;;;5019270;28;20041;-63
2021/06/24 04:51:38;;;;;;;3.53;1.98;;;;;;;;;;5017701;28;20050;-63
2021/06/24 04:54:05;;;;;;;3.58;1.85;;;;;;;;;;5020103;28;20112;-63
2021/06/24 04:56:35;;;;;;;4.20;2.20;;;;;;;;;;5019927;28;20034;-63
2021/06/24 04:59:00;;;;;;;4.78;2.10;;;;;;;;;;5021846;28;20525;-63
2021/06/24 05:01:38;;;;;;;4.30;2.63;;;;;;;;;;5017999;28;21036;-63
2021/06/24 05:04:03;;;;;;;4.30;1.90;;;;;;;;;;5022169;28;20112;-63
2021/06/24 05:06:29;;;;;;;3.40;1.77;;;;;;;;;;5036306;28;20112;-63
2021/06/24 05:08:54;;;;;;;4.30;2.22;;;;;;;;;;5021925;28;20053;-63
2021/06/24 05:11:20;;;;;;;4.25;2.00;;;;;;;;;;5017633;28;20414;-63
2021/06/24 05:13:45;;;;;;;3.13;1.90;;;;;;;;;;5002431;28;20033;-63
2021/06/24 05:16:11;;;;;;;3.72;1.88;;;;;;;;;;5004528;28;20934;-63
2021/06/24 05:18:36;;;;;;;3.92;2.00;;;;;;;;;;5010313;28;20038;-62
2021/06/24 05:21:02;;;;;;;3.35;1.90;;;;;;;;;;5017908;28;20030;-63
2021/06/24 05:23:28;;;;;;;3.70;2.08;;;;;;;;;;5024586;28;20175;-63
2021/06/24 05:25:53;;;;;;;4.43;2.05;;;;;;;;;;5015219;28;20448;-63
2021/06/24 05:28:19;;;;;;;3.67;2.10;;;;;;;;;;5024195;28;20394;-63
2021/06/24 05:30:45;;;;;;;3.83;1.70;;;;;;;;;;5024206;28;20079;-63
2021/06/24 05:33:11;;;;;;;4.40;2.10;;;;;;;;;;5022941;28;20030;-63
2021/06/24 05:35:37;;;;;;;3.45;1.90;;;;;;;;;;5024101;28;20030;-62
2021/06/24 05:38:03;;;;;;;4.07;2.13;;;;;;;;;;5022116;28;20506;-63
2021/06/24 05:40:28;;;;;;;4.82;2.05;;;;;;;;;;5023491;28;20030;-63
2021/06/24 05:42:54;;;;;;;3.60;2.15;;;;;;;;;;5014895;28;20473;-63
2021/06/24 05:45:25;;;;;;;3.78;1.90;;;;;;;;;;5023891;28;20040;-62
2021/06/24 05:47:51;;;;;;;3.65;1.75;;;;;;;;;;5023626;28;20046;-63
2021/06/24 05:50:17;;;;;;;3.53;2.05;;;;;;;;;;5025286;28;20057;-63
2021/06/24 05:52:42;;;;;;;3.05;2.00;;;;;;;;;;5024328;28;21066;-63
2021/06/24 05:55:08;;;;;;;2.80;1.80;;;;;;;;;;5019470;28;20037;-62
2021/06/24 05:57:34;;;;;;;3.30;1.90;;;;;;;;;;5024109;28;20065;-63
2021/06/24 05:59:59;;;;;;;3.42;2.00;;;;;;;;;;5022215;28;20030;-63
2021/06/24 06:02:25;;;;;;;3.38;2.00;;;;;;;;;;5021643;28;20046;-63
2021/06/24 06:04:50;;;;;;;3.88;2.30;;;;;;;;;;5022926;28;20088;-63
2021/06/24 06:07:15;;;;;;;3.60;1.88;;;;;;;;;;5023902;28;20085;-62
2021/06/24 06:09:41;;;;;;;4.35;2.15;;;;;;;;;;5017940;28;20038;-62
2021/06/24 06:12:07;;;;;;;2.35;1.70;;;;;;;;;;5015848;28;20464;-62
2021/06/24 06:14:32;;;;;;;5.38;2.28;;;;;;;;;;5023710;28;20038;-62
2021/06/24 06:16:58;;;;;;;4.03;2.13;;;;;;;;;;5024040;28;20092;-62
2021/06/24 06:19:23;;;;;;;2.90;2.00;;;;;;;;;;5022353;28;20089;-63
2021/06/24 06:21:49;;;;;;;3.67;1.90;;;;;;;;;;5023674;28;20364;-63
2021/06/24 06:24:14;;;;;;;2.85;1.85;;;;;;;;;;5021354;28;20038;-62
2021/06/24 06:26:40;;;;;;;3.70;2.08;;;;;;;;;;5023382;28;20049;-62
2021/06/24 06:29:05;;;;;;;4.07;2.10;;;;;;;;;;5015529;28;20050;-62
2021/06/24 06:31:31;;;;;;;3.05;2.00;;;;;;;;;;5023930;28;20022;-62
2021/06/24 06:33:57;;;;;;;3.58;2.10;;;;;;;;;;5024017;28;20029;-62
2021/06/24 06:36:22;;;;;;;3.45;1.77;;;;;;;;;;5023045;28;20053;-62
2021/06/24 06:38:48;;;;;;;2.70;1.88;;;;;;;;;;5022903;28;20034;-63
2021/06/24 06:41:13;;;;;;;3.65;1.90;;;;;;;;;;5023621;28;20034;-59
2021/06/24 06:43:39;;;;;;;2.35;1.80;;;;;;;;;;5023423;28;20042;-58
2021/06/24 06:46:04;;;;;;;3.42;1.90;;;;;;;;;;5023479;28;20438;-59
2021/06/24 06:48:30;;;;;;;2.95;1.40;;;;;;;;;;4998897;28;20046;-59
2021/06/24 06:50:56;;;;;;;3.92;1.80;;;;;;;;;;5024062;28;20045;-58
2021/06/24 06:53:23;;;;;;;4.75;2.20;;;;;;;;;;5017038;28;20122;-58
2021/06/24 06:55:48;;;;;;;2.88;1.30;;;;;;;;;;5021911;28;20041;-58
2021/06/24 06:58:14;;;;;;;3.97;2.13;;;;;;;;;;5018964;28;20046;-58
2021/06/24 07:00:39;;;;;;;4.20;1.80;;;;;;;;;;5023598;28;20061;-58
2021/06/24 07:03:05;;;;;;;2.78;1.77;;;;;;;;;;5013412;28;20045;-58
2021/06/24 07:05:30;;;;;;;3.38;1.90;;;;;;;;;;5005142;28;20398;-58
2021/06/24 07:07:56;;;;;;;3.95;2.00;;;;;;;;;;5022335;28;20052;-58
2021/06/24 07:10:22;;;;;;;3.58;1.48;;;;;;;;;;5022035;28;20042;-58
2021/06/24 07:12:47;;;;;;;4.68;2.10;;;;;;;;;;5022447;28;20053;-58
2021/06/24 07:15:14;;;;;;;3.15;1.40;;;;;;;;;;5022271;28;20042;-58
2021/06/24 07:17:39;;;;;;;3.28;2.15;;;;;;;;;;5023037;28;20103;-58
2021/06/24 07:20:05;;;;;;;2.97;1.52;;;;;;;;;;5021763;28;20046;-58
2021/06/24 07:22:31;;;;;;;2.90;1.30;;;;;;;;;;5022523;28;20033;-58
2021/06/24 07:24:56;;;;;;;2.47;1.40;;;;;;;;;;5015668;28;20038;-59
2021/06/24 07:27:22;;;;;;;3.30;1.60;;;;;;;;;;5023186;28;20557;-58
2021/06/24 07:29:47;;;;;;;2.90;1.38;;;;;;;;;;5016859;28;20034;-58
2021/06/24 07:32:13;;;;;;;4.60;2.28;;;;;;;;;;5022328;28;20418;-59
2021/06/24 07:34:38;;;;;;;3.13;1.65;;;;;;;;;;5022164;28;20124;-58
2021/06/24 07:37:04;;;;;;;3.35;1.67;;;;;;;;;;5023170;28;20520;-58
2021/06/24 07:39:30;;;;;;;4.35;1.55;;;;;;;;;;5007535;28;20057;-58
2021/06/24 07:41:55;;;;;;;2.78;1.50;;;;;;;;;;5020614;28;20145;-58
2021/06/24 07:44:21;;;;;;;4.07;1.85;;;;;;;;;;5022715;28;20038;-57
2021/06/24 07:46:47;;;;;;;1.50;1.27;;;;;;;;;;5022205;28;20037;-59
2021/06/24 07:49:13;;;;;;;3.58;2.03;;;;;;;;;;5022673;28;20046;-59
2021/06/24 07:51:38;;;;;;;3.55;1.95;;;;;;;;;;5022461;28;20034;-58
2021/06/24 07:54:04;;;;;;;3.22;2.08;;;;;;;;;;5022428;28;20044;-58
2021/06/24 07:56:30;;;;;;;3.67;2.15;;;;;;;;;;5023298;28;20030;-58
2021/06/24 07:58:55;;;;;;;3.15;1.80;;;;;;;;;;5018572;28;20069;-58
2021/06/24 08:01:21;;;;;;;2.53;1.80;;;;;;;;;;5022579;28;20052;-58
2021/06/24 08:03:46;;;;;;;5.00;1.98;;;;;;;;;;5022035;28;20029;-58
2021/06/24 08:06:12;;;;;;;3.58;1.63;;;;;;;;;;5021383;28;20041;-59
2021/06/24 08:08:37;;;;;;;5.18;2.22;;;;;;;;;;5021640;28;20104;-59
2021/06/24 08:11:03;;;;;;;3.05;1.55;;;;;;;;;;5023205;28;20041;-59
2021/06/24 08:13:29;;;;;;;2.88;1.83;;;;;;;;;;5003399;28;21405;-59
2021/06/24 08:15:55;;;;;;;2.42;1.58;;;;;;;;;;5020323;28;20038;-59
2021/06/24 08:18:21;;;;;;;3.08;1.58;;;;;;;;;;5022746;28;20574;-59
2021/06/24 08:20:47;;;;;;;4.63;2.22;;;;;;;;;;5020026;28;20124;-59
2021/06/24 08:23:13;;;;;;;2.35;1.30;;;;;;;;;;5004769;28;20045;-59
2021/06/24 08:25:39;;;;;;;5.18;2.10;;;;;;;;;;5021293;28;20041;-59
2021/06/24 08:28:05;;;;;;;2.45;1.50;;;;;;;;;;5021222;28;20049;-59
2021/06/24 08:30:30;;;;;;;3.28;2.00;;;;;;;;;;5022551;28;20397;-59
2021/06/24 08:32:56;;;;;;;4.15;1.80;;;;;;;;;;5021516;28;20041;-59
2021/06/24 08:35:22;;;;;;;2.38;1.60;;;;;;;;;;5022063;28;20042;-59
2021/06/24 08:37:47;;;;;;;3.90;1.60;;;;;;;;;;5021985;28;20033;-58
2021/06/24 08:40:13;;;;;;;2.13;1.70;;;;;;;;;;5022223;28;20046;-58
2021/06/24 08:42:39;;;;;;;3.55;1.92;;;;;;;;;;4998226;28;21043;-58
2021/06/24 08:45:06;;;;;;;5.43;2.90;;;;;;;;;;5019624;28;20034;-59
2021/06/24 08:47:32;;;;;;;3.05;2.05;;;;;;;;;;5020954;28;20045;-58
2021/06/24 08:49:58;;;;;;;4.63;2.40;;;;;;;;;;5022585;28;20821;-59
2021/06/24 08:52:23;;;;;;;3.13;2.00;;;;;;;;;;5021771;28;20030;-58
2021/06/24 08:54:49;;;;;;;3.53;2.03;;;;;;;;;;5020495;28;20401;-58
2021/06/24 08:57:15;;;;;;;3.85;2.20;;;;;;;;;;5002676;28;20048;-59
2021/06/24 08:59:41;;;;;;;3.33;2.08;;;;;;;;;;5022072;28;20482;-59
2021/06/24 09:02:11;;;;;;;6.78;2.97;;;;;;;;;;5019740;28;20088;-59
2021/06/24 09:04:39;;;;;;;4.75;2.83;;;;;;;;;;5021500;28;20482;-58
2021/06/24 09:07:24;;;;;;;4.20;2.58;;;;;;;;;;5020101;28;20117;-58
2021/06/24 09:09:56;;;;;;;3.83;2.20;;;;;;;;;;5021289;28;20109;-59
2021/06/24 09:12:22;;;;;;;4.75;2.20;;;;;;;;;;5017286;28;20570;-58
2021/06/24 09:14:49;;;;;;;2.97;1.70;;;;;;;;;;5020363;28;20042;-59
2021/06/24 09:17:40;;;;;;;4.55;2.72;;;;;;;;;;5020443;28;20525;-58
2021/06/24 09:20:18;;;;;;;3.72;2.00;;;;;;;;;;5019969;28;20068;-58
2021/06/24 09:23:05;;;;;;;4.32;2.20;;;;;;;;;;5022282;28;20033;-58
2021/06/24 09:25:31;;;;;;;4.50;2.22;;;;;;;;;;5019392;28;20562;-58
2021/06/24 09:27:56;;;;;;;4.20;2.10;;;;;;;;;;5020372;28;20046;-59
2021/06/24 09:30:34;;;;;;;3.33;1.80;;;;;;;;;;5022422;28;20038;-59
2021/06/24 09:33:17;;;;;;;4.03;2.13;;;;;;;;;;5020704;28;20038;-59
2021/06/24 09:35:52;;;;;;;3.92;2.03;;;;;;;;;;5021428;28;20845;-60
2021/06/24 09:38:18;;;;;;;4.28;2.50;;;;;;;;;;5019593;28;20588;-60
2021/06/24 09:40:49;;;;;;;4.63;2.05;;;;;;;;;;5015428;28;20042;-60
2021/06/24 09:43:36;;;;;;;3.17;2.00;;;;;;;;;;5020779;28;20156;-60
2021/06/24 09:46:13;;;;;;;3.88;2.50;;;;;;;;;;5021569;28;20030;-60
2021/06/24 09:48:43;;;;;;;3.97;1.90;;;;;;;;;;5019801;28;20085;-60
2021/06/24 09:51:28;;;;;;;4.50;2.65;;;;;;;;;;5019810;28;20992;-60
2021/06/24 09:54:00;;;;;;;5.22;3.00;;;;;;;;;;5021189;28;20034;-59
2021/06/24 09:56:45;;;;;;;5.10;3.28;;;;;;;;;;5021763;28;20866;-60
2021/06/24 09:59:12;;;;;;;5.20;3.20;;;;;;;;;;5039481;28;20085;-60
2021/06/24 10:01:47;;;;;;;5.07;3.50;;;;;;;;;;5024548;28;20037;-60
2021/06/24 10:04:20;;;;;;;4.43;2.30;;;;;;;;;;5023327;28;20042;-60
2021/06/24 10:06:50;;;;;;;4.53;2.85;;;;;;;;;;5020700;28;20039;-60
2021/06/24 10:09:16;;;;;;;3.05;2.15;;;;;;;;;;5019961;28;20046;-60
2021/06/24 10:11:41;;;;;;;2.90;2.42;;;;;;;;;;5020090;28;20030;-60
2021/06/24 10:14:07;;;;;;;4.70;3.33;;;;;;;;;;5014798;28;20034;-60
2021/06/24 10:16:32;;;;;;;4.40;3.20;;;;;;;;;;5003276;28;20398;-59
2021/06/24 10:18:59;;;;;;;5.80;3.60;;;;;;;;;;5003150;28;20525;-60
2021/06/24 10:21:25;;;;;;;6.20;3.55;;;;;;;;;;5019951;28;20037;-59
2021/06/24 10:23:53;;;;;;;4.80;3.40;;;;;;;;;;5002094;28;20430;-59
2021/06/24 10:26:18;;;;;;;4.90;3.33;;;;;;;;;;5012522;28;20061;-59
2021/06/24 10:28:44;;;;;;;4.90;3.13;;;;;;;;;;4988845;28;20133;-60
2021/06/24 10:31:36;;;;;;;7.07;3.17;;;;;;;;;;5018027;28;20402;-59
2021/06/24 10:34:03;;;;;;;3.88;2.13;;;;;;;;;;5036623;28;20209;-58
2021/06/24 10:36:29;;;;;;;4.57;2.78;;;;;;;;;;5003337;28;20046;-59
2021/06/24 10:38:56;;;;;;;4.95;2.80;;;;;;;;;;5021928;28;20080;-59
2021/06/24 10:41:22;;;;;;;5.07;2.67;;;;;;;;;;5018168;28;20045;-59
2021/06/24 10:43:48;;;;;;;3.90;2.72;;;;;;;;;;5006605;28;20060;-59
2021/06/24 10:46:17;;;;;;;4.13;2.70;;;;;;;;;;5022024;28;20117;-60
2021/06/24 10:50:26;;;;;;;3.63;2.30;;;;;;;;;;5074589;28;20877;-58
2021/06/24 10:52:51;;;;;;;3.03;2.15;;;;;;;;;;5074793;28;20037;-58
2021/06/24 10:55:36;;;;;;;2.85;2.30;;;;;;;;;;5074910;28;20516;-58
2021/06/24 10:58:02;;;;;;;4.63;3.20;;;;;;;;;;5074476;28;20041;-58
2021/06/24 11:00:37;;;;;;;5.22;3.88;;;;;;;;;;5074616;28;20041;-58
2021/06/24 11:03:03;;;;;;;6.53;3.15;;;;;;;;;;5072924;28;20032;-59
2021/06/24 11:05:32;;;;;;;6.07;3.75;;;;;;;;;;5074811;28;20033;-58
2021/06/24 11:07:58;;;;;;;3.92;3.13;;;;;;;;;;5071114;28;20077;-59
2021/06/24 11:10:25;;;;;;;5.93;3.42;;;;;;;;;;5077669;28;20044;-59
2021/06/24 11:12:57;;;;;;;5.15;3.25;;;;;;;;;;5072912;28;20197;-59
2021/06/24 11:15:41;;;;;;;5.72;3.15;;;;;;;;;;5071488;28;20033;-58
2021/06/24 11:18:07;;;;;;;4.82;2.92;;;;;;;;;;5074547;28;20489;-59
2021/06/24 11:20:42;;;;;;;5.25;3.53;;;;;;;;;;5073791;28;20064;-58
2021/06/24 11:23:29;;;;;;;3.55;2.38;;;;;;;;;;5072080;28;20469;-58
2021/06/24 11:26:02;;;;;;;4.13;2.33;;;;;;;;;;5077103;28;20035;-58
2021/06/24 11:28:39;;;;;;;5.53;2.65;;;;;;;;;;5072661;28;20049;-58
2021/06/24 11:31:06;;;;;;;3.25;2.70;;;;;;;;;;5071909;28;20033;-58
2021/06/24 11:33:33;;;;;;;2.85;2.20;;;;;;;;;;5072463;28;20036;-58
2021/06/24 11:36:12;;;;;;;4.15;2.53;;;;;;;;;;5073401;28;20047;-58
2021/06/24 11:38:44;;;;;;;4.60;3.10;;;;;;;;;;5074213;28;20033;-60
2021/06/24 11:47:04;;;;;;;4.55;2.60;;;;;;;;;;5115249;27;21016;-58
2021/06/24 12:00:45;;;;;;;3.90;3.00;;;;;;;24.18;68.75;100597.25;5063777;28;20033;-61
2021/06/24 12:03:19;;;;;;;4.55;2.97;;;;;;;24.17;68.38;100595.59;5060294;28;20033;-61
2021/06/24 12:05:52;;;;;;;4.07;2.80;;;;;;;24.24;68.06;100601.66;5063690;28;20067;-60
2021/06/24 12:08:25;;;;;;;4.18;3.50;;;;;;;24.26;67.79;100610.34;5062660;28;21317;-61
2021/06/24 12:11:03;;;;;;;5.25;2.80;;;;;;;24.35;67.88;100608.78;5045939;28;20864;-64
2021/06/24 12:14:18;;;;;;;6.10;3.60;;;;;;;;;;5065717;28;20502;-63
2021/06/24 12:17:11;;;;;;;3.80;3.03;;;;;;;;;;5066159;28;20037;-63
2021/06/24 12:19:45;;;;;;;3.60;2.97;;;;;;;;;;5067089;28;20033;-63
2021/06/24 12:22:13;;;;;;;4.63;3.00;;;;;;;;;;5065888;28;20032;-63
2021/06/24 12:24:39;;;;;;;4.78;3.10;;;;;;;;;;5063903;28;20042;-63
2021/06/24 12:27:17;;;;;;;5.90;3.65;;;;;;;;;;5064993;28;20052;-61
2021/06/24 12:29:43;;;;;;;7.50;5.30;;;;;;;;;;5068950;28;20037;-62
2021/06/24 12:32:08;;;;;;;6.53;5.20;;;;;;;;;;5050809;28;20048;-61
2021/06/24 12:34:34;;;;;;;7.90;5.43;;;;;;;;;;5064740;28;20513;-62
2021/06/24 12:36:59;;;;;;;6.55;5.03;;;;;;;;;;5065812;28;20037;-62
2021/06/24 12:39:24;;;;;;;8.30;5.50;;;;;;;;;;5066751;28;20041;-62
2021/06/24 12:41:51;;;;;;;7.28;5.75;;;;;;;;;;5065224;28;20076;-62
2021/06/24 12:44:17;;;;;;;6.82;5.60;;;;;;;;;;5066309;28;20033;-62
2021/06/24 12:46:42;;;;;;;7.55;5.55;;;;;;;;;;5062683;28;20589;-62
2021/06/24 12:49:15;;;;;;;8.60;5.80;;;;;;;;;;5066120;28;20551;-62
2021/06/24 12:51:41;;;;;;;6.35;5.13;;;;;;;;;;5051672;28;20041;-63
2021/06/24 12:54:17;;;;;;;8.60;6.43;;;;;;;;;;5064285;28;20068;-62
2021/06/24 12:56:47;;;;;;;7.85;6.00;;;;;;;;;;5049124;28;20044;-62
2021/06/24 12:59:19;;;;;;;7.32;5.63;;;;;;;;;;5066130;28;20040;-62
2021/06/24 13:01:45;;;;;;;8.32;5.82;;;;;;;;;;5067574;28;20170;-62
2021/06/24 13:04:22;;;;;;;7.35;5.78;;;;;;;;;;5066974;28;20041;-62
2021/06/24 13:06:48;;;;;;;8.38;6.05;;;;;;;;;;5074139;28;20033;-62
2021/06/24 13:09:15;;;;;;;8.25;6.07;;;;;;;;;;5067004;28;20039;-62
2021/06/24 13:11:43;;;;;;;8.27;5.88;;;;;;;;;;5064865;28;20048;-62
2021/06/24 13:14:19;;;;;;;7.85;5.90;;;;;;;;;;5083013;28;20047;-61
2021/06/24 13:17:01;;;;;;;8.48;6.20;;;;;;;;;;5095042;28;20040;-62
2021/06/24 13:19:38;;;;;;;8.23;5.90;;;;;;;;;;5084662;28;20024;-62
2021/06/24 13:22:07;;;;;;;8.65;6.07;;;;;;;;;;5086157;28;20226;-62
2021/06/24 13:24:35;;;;;;;7.72;6.15;;;;;;;;;;5078632;28;20040;-62
2021/06/24 13:27:22;;;;;;;8.50;6.20;;;;;;;;;;5073862;28;21291;-62
2021/06/24 13:29:54;;;;;;;8.77;6.03;;;;;;;;;;5070824;28;20043;-62
2021/06/24 13:32:33;;;;;;;9.10;6.75;;;;;;;;;;5071726;28;20048;-62
2021/06/24 13:35:22;;;;;;;7.45;6.13;;;;;;;;;;5073819;28;20124;-62
2021/06/24 13:37:59;;;;;;;8.18;6.22;;;;;;;;;;5072185;28;20105;-62
2021/06/24 13:40:30;;;;;;;7.90;6.03;;;;;;;;;;5080751;28;20033;-62
2021/06/24 13:42:59;;;;;;;7.45;6.20;;;;;;;;;;5072236;28;20588;-65
2021/06/24 13:45:24;;;;;;;8.38;6.03;;;;;;;;;;5080563;28;20051;-67
2021/06/24 13:47:50;;;;;;;7.88;5.70;;;;;;;;;;5074148;28;20039;-69
2021/06/24 13:50:16;;;;;;;6.88;6.15;;;;;;;;;;5072759;28;20110;-66
2021/06/24 13:52:42;;;;;;;7.90;6.15;;;;;;;;;;5070735;28;20044;-65
2021/06/24 13:55:08;;;;;;;7.85;6.13;;;;;;;;;;5071409;28;20045;-67
2021/06/24 13:57:33;;;;;;;9.02;6.00;;;;;;;;;;5071524;28;20502;-65
2021/06/24 14:00:00;;;;;;;7.40;5.60;;;;;;;;;;5072232;28;20043;-65
2021/06/24 14:02:25;;;;;;;8.10;5.97;;;;;;;;;;5073628;28;20040;-67
2021/06/24 14:04:51;;;;;;;7.65;5.32;;;;;;;;;;5054872;28;20515;-66
2021/06/24 14:07:17;;;;;;;7.38;5.30;;;;;;;;;;5072142;28;20523;-66
2021/06/24 14:09:43;;;;;;;7.25;5.43;;;;;;;;;;5074110;28;20096;-67
2021/06/24 14:12:08;;;;;;;7.63;5.63;;;;;;;;;;5070272;28;20400;-67
2021/06/24 14:14:34;;;;;;;6.93;5.10;;;;;;;;;;5072526;28;20044;-66
2021/06/24 14:16:59;;;;;;;6.93;5.50;;;;;;;;;;5070204;28;20044;-66
2021/06/24 14:19:28;;;;;;;9.57;5.90;;;;;;;;;;5072012;28;20160;-66
2021/06/24 14:21:56;;;;;;;7.47;5.68;;;;;;;;;;5070666;28;20448;-66
2021/06/24 14:24:21;;;;;;;8.50;5.70;;;;;;;;;;5067001;28;20029;-66
2021/06/24 14:26:47;;;;;;;8.57;6.55;;;;;;;;;;5072851;28;20118;-66
2021/06/24 14:29:13;;;;;;;8.07;6.25;;;;;;;;;;5068629;28;20037;-66
2021/06/24 14:31:39;;;;;;;7.78;6.03;;;;;;;;;;5069966;28;20412;-66
2021/06/24 14:34:05;;;;;;;6.40;4.80;;;;;;;;;;5072256;28;20041;-66
2021/06/24 14:36:31;;;;;;;6.30;5.30;;;;;;;;;;5069713;28;20559;-66
2021/06/24 14:38:57;;;;;;;6.82;5.50;;;;;;;;;;5070652;28;20037;-66
2021/06/24 14:41:22;;;;;;;6.40;5.47;;;;;;;;;;5073514;28;20765;-66
2021/06/24 14:43:48;;;;;;;7.53;5.45;;;;;;;;;;5073824;28;20045;-66
2021/06/24 14:46:13;;;;;;;8.07;5.75;;;;;;;;;;5071416;28;20023;-66
2021/06/24 14:48:41;;;;;;;6.88;5.32;;;;;;;;;;5070122;28;20037;-66
2021/06/24 14:51:07;;;;;;;9.13;6.07;;;;;;;;;;5071409;28;20036;-66
2021/06/24 14:53:33;;;;;;;8.30;5.50;;;;;;;;;;5067969;28;20072;-65
2021/06/24 14:55:59;;;;;;;7.00;4.90;;;;;;;;;;5069914;28;20039;-66
2021/06/24 14:58:25;;;;;;;7.80;5.28;;;;;;;;;;5072111;28;20025;-66
2021/06/24 15:00:50;;;;;;;7.03;5.05;;;;;;;;;;5071181;28;20102;-65
2021/06/24 15:03:16;;;;;;;7.72;5.30;;;;;;;;;;5071376;28;20119;-66
2021/06/24 15:05:41;;;;;;;7.80;5.47;;;;;;;;;;5069590;28;20043;-66
2021/06/24 15:08:07;;;;;;;6.68;5.05;;;;;;;;;;5071446;28;20024;-66